Time;durP1;ratioP1;P1;durP2;ratioP2;P2;SDS_P1;SDS_P2;PMS_P1;PMS_P2;Temp;Humidity;BMP_temperature;BMP_pressure;BME280_temperature;BME280_humidity;BME280_pressure;Samples;Min_cycle;Max_cycle;Signal;HPM_P1;HPM_P2
2021/11/07 00:06:56;;;;;;;11.50;8.68;;;8.80;99.90;;;;;;5068171;28;20111;-61
2021/11/07 00:09:28;;;;;;;11.23;8.10;;;8.80;99.90;;;;;;5063846;28;20044;-62
2021/11/07 00:11:57;;;;;;;11.07;8.57;;;8.80;99.90;;;;;;5039326;28;20405;-61
2021/11/07 00:14:23;;;;;;;10.63;8.63;;;8.80;99.90;;;;;;5058025;28;20044;-61
2021/11/07 00:16:49;;;;;;;14.70;8.90;;;8.70;99.90;;;;;;5053423;28;20069;-63
2021/11/07 00:19:36;;;;;;;10.70;7.82;;;8.70;99.90;;;;;;5050062;28;20056;-62
2021/11/07 00:24:44;;;;;;;12.55;8.98;;;8.70;99.90;;;;;;5056326;28;20025;-61
2021/11/07 00:27:31;;;;;;;11.07;8.77;;;8.80;99.90;;;;;;5056624;28;20103;-63
2021/11/07 00:32:51;;;;;;;10.57;8.50;;;8.80;99.90;;;;;;5055667;28;20374;-62
2021/11/07 00:38:03;;;;;;;11.70;8.90;;;8.80;99.90;;;;;;5055875;28;20063;-62
2021/11/07 00:40:41;;;;;;;10.55;8.57;;;8.90;99.90;;;;;;5055381;28;20025;-62
2021/11/07 00:45:48;;;;;;;10.07;8.38;;;8.90;99.90;;;;;;5056221;28;20036;-61
2021/11/07 00:48:27;;;;;;;11.20;8.63;;;8.90;99.90;;;;;;5035907;28;20175;-62
2021/11/07 01:01:25;;;;;;;12.55;8.50;;;8.70;99.90;;;;;;5038829;28;20049;-62
2021/11/07 01:03:52;;;;;;;10.23;8.30;;;8.70;99.90;;;;;;5055321;28;20044;-60
2021/11/07 01:06:19;;;;;;;11.40;7.80;;;8.60;99.90;;;;;;5055482;28;20043;-61
2021/11/07 01:08:45;;;;;;;10.88;8.52;;;8.60;99.90;;;;;;5055433;28;20036;-61
2021/11/07 01:11:11;;;;;;;13.32;8.35;;;8.60;99.90;;;;;;5055395;28;20031;-61
2021/11/07 01:13:37;;;;;;;13.55;7.75;;;8.70;99.90;;;;;;5054245;28;20116;-61
2021/11/07 01:16:03;;;;;;;13.82;8.10;;;8.80;99.90;;;;;;5053656;28;20396;-62
2021/11/07 01:18:29;;;;;;;10.02;8.50;;;8.80;99.90;;;;;;5055202;28;20480;-62
2021/11/07 01:20:56;;;;;;;10.43;7.88;;;8.80;99.90;;;;;;5054454;28;20044;-60
2021/11/07 01:25:50;;;;;;;9.77;7.97;;;9.00;99.70;;;;;;5054678;28;20040;-62
2021/11/07 01:28:17;;;;;;;11.70;8.18;;;8.90;99.70;;;;;;5054629;28;20036;-61
2021/11/07 01:30:54;;;;;;;12.27;8.45;;;9.00;99.70;;;;;;5054799;28;20105;-61
2021/11/07 01:33:30;;;;;;;11.02;8.35;;;9.00;99.60;;;;;;5054770;28;20029;-62
2021/11/07 01:36:12;;;;;;;10.90;9.02;;;9.00;99.60;;;;;;5054370;28;20044;-61
2021/11/07 01:38:48;;;;;;;12.02;8.18;;;9.00;99.40;;;;;;5055349;28;20166;-63
2021/11/07 01:43:43;;;;;;;10.60;7.78;;;9.00;99.20;;;;;;5054630;28;20048;-63
2021/11/07 01:49:00;;;;;;;8.05;7.00;;;9.00;99.50;;;;;;5055222;28;20021;-62
2021/11/07 01:51:28;;;;;;;9.45;6.80;;;9.00;99.00;;;;;;5052631;28;20485;-61
2021/11/07 01:54:00;;;;;;;9.02;6.55;;;9.10;99.00;;;;;;5053265;28;20463;-64
2021/11/07 01:56:26;;;;;;;11.55;7.85;;;9.00;98.80;;;;;;5037387;28;20104;-62
2021/11/07 01:58:51;;;;;;;9.13;6.90;;;9.00;98.90;;;;;;5049646;28;20464;-62
2021/11/07 02:01:22;;;;;;;8.35;6.80;;;9.00;99.00;;;;;;5033613;28;20033;-61
2021/11/07 02:03:47;;;;;;;8.27;6.35;;;9.00;98.70;;;;;;5032803;28;20071;-63
2021/11/07 02:06:13;;;;;;;8.23;6.38;;;8.90;99.00;;;;;;5032834;28;20058;-62
2021/11/07 02:08:39;;;;;;;8.57;6.28;;;8.90;99.20;;;;;;5034302;28;20136;-60
2021/11/07 02:11:04;;;;;;;8.43;6.90;;;8.80;99.30;;;;;;5033367;28;20465;-64
2021/11/07 02:13:30;;;;;;;8.75;6.50;;;8.90;99.30;;;;;;5033891;28;20100;-62
2021/11/07 02:15:57;;;;;;;8.48;6.10;;;8.80;99.20;;;;;;5034169;28;20456;-60
2021/11/07 02:18:23;;;;;;;8.93;6.10;;;9.00;99.00;;;;;;5048102;28;20036;-62
2021/11/07 02:20:49;;;;;;;7.00;5.97;;;9.10;98.70;;;;;;5053960;28;20453;-63
2021/11/07 02:23:18;;;;;;;6.18;5.15;;;9.00;98.80;;;;;;5069034;28;20370;-61
2021/11/07 02:25:45;;;;;;;12.65;6.30;;;9.10;98.30;;;;;;5048761;28;20056;-62
2021/11/07 02:28:21;;;;;;;6.82;5.80;;;9.10;98.50;;;;;;5052347;28;20028;-65
2021/11/07 02:30:47;;;;;;;7.13;6.07;;;9.00;98.50;;;;;;5053266;28;20087;-63
2021/11/07 02:33:13;;;;;;;7.25;5.07;;;9.10;98.40;;;;;;5051717;28;20147;-63
2021/11/07 02:35:38;;;;;;;7.25;4.80;;;9.20;97.90;;;;;;5052319;28;20045;-63
2021/11/07 02:38:04;;;;;;;6.03;5.20;;;9.10;97.90;;;;;;5054009;28;20029;-64
2021/11/07 02:40:29;;;;;;;5.93;5.20;;;9.10;98.00;;;;;;5052519;28;20423;-62
2021/11/07 02:42:55;;;;;;;7.32;5.57;;;9.00;98.20;;;;;;5054403;28;20025;-63
2021/11/07 02:45:21;;;;;;;10.93;5.78;;;9.00;98.40;;;;;;5054245;28;20456;-61
2021/11/07 02:47:48;;;;;;;6.80;5.07;;;8.90;98.60;;;;;;5053417;28;20043;-63
2021/11/07 02:50:16;;;;;;;6.38;5.00;;;8.80;98.70;;;;;;5052853;28;20033;-63
2021/11/07 02:52:41;;;;;;;6.85;5.60;;;8.80;98.90;;;;;;5054111;28;20033;-62
2021/11/07 02:55:08;;;;;;;6.70;5.35;;;8.80;98.90;;;;;;5053027;28;20446;-62
2021/11/07 02:57:34;;;;;;;6.82;5.53;;;8.80;98.90;;;;;;5053289;28;20033;-62
2021/11/07 03:00:03;;;;;;;7.60;5.75;;;8.80;98.70;;;;;;5053135;28;20043;-61
2021/11/07 03:02:29;;;;;;;6.78;5.13;;;8.80;98.70;;;;;;5053614;28;20025;-62
2021/11/07 03:04:55;;;;;;;6.75;5.35;;;8.70;98.70;;;;;;5052165;28;20033;-63
2021/11/07 03:07:22;;;;;;;6.50;5.35;;;8.70;98.80;;;;;;5053512;28;20033;-62
2021/11/07 03:09:49;;;;;;;6.78;5.70;;;8.70;98.80;;;;;;5053866;28;20045;-63
2021/11/07 03:12:15;;;;;;;7.88;5.50;;;8.70;98.80;;;;;;5053804;28;20033;-63
2021/11/07 03:14:45;;;;;;;6.75;5.18;;;8.80;99.00;;;;;;5053824;28;20044;-62
2021/11/07 03:17:13;;;;;;;8.98;5.65;;;8.70;99.00;;;;;;5053084;28;20041;-63
2021/11/07 03:19:39;;;;;;;7.53;5.30;;;8.70;99.00;;;;;;5053098;28;20033;-63
2021/11/07 03:22:08;;;;;;;7.30;5.85;;;8.70;99.10;;;;;;5053397;28;20551;-63
2021/11/07 03:24:35;;;;;;;6.07;5.25;;;8.70;99.10;;;;;;5053598;28;20492;-63
2021/11/07 03:27:08;;;;;;;6.95;5.78;;;8.70;99.10;;;;;;5053198;28;20492;-63
2021/11/07 03:29:34;;;;;;;7.60;5.57;;;8.80;99.00;;;;;;5052124;28;20527;-62
2021/11/07 03:32:11;;;;;;;6.63;5.60;;;8.80;99.00;;;;;;5067175;28;20037;-62
2021/11/07 03:34:54;;;;;;;6.78;5.50;;;8.80;99.10;;;;;;5053143;28;20025;-62
2021/11/07 03:37:23;;;;;;;11.50;7.05;;;8.80;99.10;;;;;;5039290;28;20064;-62
2021/11/07 03:39:51;;;;;;;6.22;5.20;;;8.80;99.00;;;;;;5055041;28;20512;-62
2021/11/07 03:42:17;;;;;;;8.48;6.38;;;8.80;99.10;;;;;;5056351;28;20120;-62
2021/11/07 03:44:43;;;;;;;7.25;5.88;;;8.80;99.00;;;;;;5056515;28;20110;-62
2021/11/07 03:47:10;;;;;;;8.82;6.35;;;8.90;98.90;;;;;;5056460;28;20499;-62
2021/11/07 03:49:37;;;;;;;7.75;6.03;;;8.80;98.90;;;;;;5055949;28;20029;-64
2021/11/07 03:52:03;;;;;;;7.22;5.85;;;8.80;99.00;;;;;;5056074;28;20032;-64
2021/11/07 03:54:30;;;;;;;6.95;6.20;;;8.80;98.90;;;;;;5057647;28;20068;-64
2021/11/07 03:56:58;;;;;;;9.18;6.47;;;8.80;98.90;;;;;;5036051;28;20034;-62
2021/11/07 03:59:25;;;;;;;7.63;6.32;;;8.80;98.90;;;;;;5036574;28;20029;-62
2021/11/07 04:01:52;;;;;;;8.18;6.40;;;8.90;99.00;;;;;;5044905;28;20029;-63
2021/11/07 04:04:18;;;;;;;7.72;5.88;;;8.80;99.10;;;;;;5047473;28;20116;-64
2021/11/07 04:06:44;;;;;;;7.60;6.50;;;8.80;99.10;;;;;;5055425;28;20492;-61
2021/11/07 04:09:09;;;;;;;7.90;6.43;;;8.70;99.20;;;;;;5056448;28;20033;-64
2021/11/07 04:11:36;;;;;;;8.82;7.18;;;8.70;99.30;;;;;;5055475;28;20373;-62
2021/11/07 04:14:03;;;;;;;8.30;6.53;;;8.70;99.30;;;;;;5057005;28;20029;-63
2021/11/07 04:16:29;;;;;;;8.45;6.75;;;8.70;99.40;;;;;;5056153;28;20067;-63
2021/11/07 04:18:55;;;;;;;9.02;7.07;;;8.60;99.40;;;;;;5056277;28;20037;-62
2021/11/07 04:21:21;;;;;;;8.93;7.20;;;8.60;99.40;;;;;;5055928;28;20384;-63
2021/11/07 04:23:47;;;;;;;11.55;6.82;;;8.60;99.50;;;;;;5055689;28;20033;-63
2021/11/07 04:26:13;;;;;;;9.80;6.93;;;8.60;99.50;;;;;;5057110;28;20445;-61
2021/11/07 04:28:38;;;;;;;10.80;7.13;;;8.50;99.70;;;;;;5056221;28;20377;-64
2021/11/07 04:31:05;;;;;;;9.55;7.10;;;8.40;99.80;;;;;;5056194;28;20083;-62
2021/11/07 04:33:31;;;;;;;9.55;7.28;;;8.40;99.80;;;;;;5055293;28;20044;-64
2021/11/07 04:35:56;;;;;;;9.05;7.45;;;8.30;99.90;;;;;;5056574;28;20043;-63
2021/11/07 04:38:22;;;;;;;10.38;7.80;;;8.30;99.90;;;;;;5056730;28;20037;-64
2021/11/07 04:40:47;;;;;;;10.55;8.05;;;8.30;99.90;;;;;;5055378;28;20033;-61
2021/11/07 04:43:13;;;;;;;10.35;7.68;;;8.30;99.90;;;;;;5055838;28;20060;-62
2021/11/07 04:45:39;;;;;;;9.35;7.90;;;8.20;99.90;;;;;;5056656;28;20083;-63
2021/11/07 04:48:05;;;;;;;11.57;7.95;;;8.30;99.90;;;;;;5054666;28;20489;-62
2021/11/07 04:50:37;;;;;;;9.55;7.35;;;8.30;99.90;;;;;;5055243;28;20076;-63
2021/11/07 04:53:08;;;;;;;9.10;7.43;;;8.30;99.90;;;;;;5054585;28;20025;-63
2021/11/07 04:55:41;;;;;;;10.07;7.63;;;8.20;99.90;;;;;;5055473;28;20036;-63
2021/11/07 04:58:07;;;;;;;10.48;7.72;;;8.20;99.90;;;;;;5071737;28;20178;-63
2021/11/07 05:00:33;;;;;;;8.75;7.70;;;8.20;99.90;;;;;;5056393;28;20089;-62
2021/11/07 05:03:01;;;;;;;11.60;7.68;;;8.20;99.90;;;;;;5056554;28;20479;-63
2021/11/07 05:05:27;;;;;;;10.05;7.57;;;8.10;99.90;;;;;;5054289;28;20090;-63
2021/11/07 05:07:55;;;;;;;9.07;7.20;;;8.10;99.90;;;;;;5055755;28;20436;-63
2021/11/07 05:10:21;;;;;;;10.35;6.75;;;8.10;99.90;;;;;;5055982;28;20025;-64
2021/11/07 05:12:47;;;;;;;8.52;6.50;;;8.10;99.90;;;;;;5055934;28;20037;-63
2021/11/07 05:15:13;;;;;;;8.95;7.45;;;8.00;99.90;;;;;;5071374;28;20032;-63
2021/11/07 05:17:38;;;;;;;9.50;6.53;;;8.00;99.90;;;;;;5054920;28;20399;-63
2021/11/07 05:20:05;;;;;;;8.98;7.22;;;8.10;99.90;;;;;;5054660;28;20033;-61
2021/11/07 05:22:31;;;;;;;11.68;7.82;;;8.10;99.90;;;;;;5055705;28;20029;-61
2021/11/07 05:24:57;;;;;;;9.63;7.30;;;8.20;99.90;;;;;;5055859;28;20397;-64
2021/11/07 05:27:23;;;;;;;9.48;7.30;;;8.20;99.90;;;;;;5055208;28;20033;-64
2021/11/07 05:29:49;;;;;;;8.93;7.28;;;8.20;99.90;;;;;;5070268;28;20029;-63
2021/11/07 05:32:14;;;;;;;7.85;6.97;;;8.30;99.90;;;;;;5055149;28;20044;-65
2021/11/07 05:34:41;;;;;;;10.77;6.80;;;8.30;99.90;;;;;;5055193;28;20098;-62
2021/11/07 05:37:08;;;;;;;8.82;6.65;;;8.30;99.90;;;;;;5055300;28;20041;-61
2021/11/07 05:39:33;;;;;;;9.52;7.55;;;8.40;99.90;;;;;;5055391;28;20135;-63
2021/11/07 05:41:59;;;;;;;8.50;7.00;;;8.30;99.90;;;;;;5053539;28;20433;-63
2021/11/07 05:44:24;;;;;;;8.30;6.93;;;8.40;99.90;;;;;;5053940;28;20374;-62
2021/11/07 05:46:50;;;;;;;8.52;6.53;;;8.40;99.90;;;;;;5053441;28;20039;-64
2021/11/07 05:49:17;;;;;;;9.07;6.80;;;8.50;99.90;;;;;;5054273;28;20086;-63
2021/11/07 05:51:42;;;;;;;9.82;6.85;;;8.50;99.90;;;;;;5053123;28;20083;-61
2021/11/07 05:54:08;;;;;;;10.65;7.00;;;8.50;99.90;;;;;;5055207;28;20033;-62
2021/11/07 05:56:34;;;;;;;8.88;6.38;;;8.50;99.90;;;;;;5055005;28;20041;-62
2021/11/07 05:59:02;;;;;;;10.57;6.90;;;8.40;99.90;;;;;;5054374;28;20072;-64
2021/11/07 06:01:27;;;;;;;9.10;7.45;;;8.40;99.90;;;;;;5054230;28;20113;-64
2021/11/07 06:03:53;;;;;;;9.63;7.30;;;8.40;99.90;;;;;;5053984;28;20045;-63
2021/11/07 06:06:19;;;;;;;10.00;7.60;;;8.40;99.90;;;;;;5054252;28;20489;-63
2021/11/07 06:08:44;;;;;;;12.90;7.45;;;8.30;99.90;;;;;;5053833;28;20043;-64
2021/11/07 06:11:11;;;;;;;10.07;7.45;;;8.30;99.90;;;;;;5054276;28;20481;-62
2021/11/07 06:13:36;;;;;;;10.48;7.85;;;8.30;99.90;;;;;;5054330;28;20033;-65
2021/11/07 06:16:03;;;;;;;9.93;7.70;;;8.30;99.90;;;;;;5054173;28;20503;-65
2021/11/07 06:18:30;;;;;;;11.55;7.82;;;8.30;99.90;;;;;;5054273;28;20033;-65
2021/11/07 06:20:56;;;;;;;9.35;6.75;;;8.30;99.90;;;;;;5053438;28;20468;-63
2021/11/07 06:23:23;;;;;;;8.10;6.88;;;8.40;99.90;;;;;;5053592;28;20041;-62
2021/11/07 06:25:49;;;;;;;9.65;7.18;;;8.40;99.90;;;;;;5052598;28;20033;-63
2021/11/07 06:28:16;;;;;;;7.55;6.75;;;8.30;99.90;;;;;;5052136;28;20040;-59
2021/11/07 06:30:42;;;;;;;9.20;6.88;;;8.40;99.90;;;;;;5053064;28;20165;-63
2021/11/07 06:33:09;;;;;;;9.77;7.13;;;8.30;99.90;;;;;;5052481;28;20040;-63
2021/11/07 06:35:34;;;;;;;8.65;7.43;;;8.40;99.90;;;;;;5054226;28;20025;-63
2021/11/07 06:38:01;;;;;;;8.00;7.20;;;8.30;99.90;;;;;;5051891;28;20031;-63
2021/11/07 06:40:27;;;;;;;9.20;7.50;;;8.30;99.90;;;;;;5051351;28;20112;-63
2021/11/07 06:42:52;;;;;;;14.95;9.35;;;8.30;99.90;;;;;;5053534;28;20059;-60
2021/11/07 06:45:19;;;;;;;11.05;7.72;;;8.20;99.90;;;;;;5052963;28;20068;-61
2021/11/07 06:47:46;;;;;;;11.15;7.80;;;8.20;99.90;;;;;;5052765;28;20025;-61
2021/11/07 06:50:12;;;;;;;9.75;7.68;;;8.20;99.90;;;;;;5053229;28;20025;-61
2021/11/07 06:52:40;;;;;;;9.52;7.82;;;8.20;99.90;;;;;;5051660;28;20033;-62
2021/11/07 06:55:07;;;;;;;11.20;8.43;;;8.20;99.90;;;;;;5053868;28;20029;-60
2021/11/07 06:57:32;;;;;;;11.93;8.73;;;8.10;99.90;;;;;;5053388;28;20063;-61
2021/11/07 06:59:58;;;;;;;10.82;7.97;;;8.10;99.90;;;;;;5052901;28;20064;-63
2021/11/07 07:02:24;;;;;;;10.95;9.00;;;8.10;99.90;;;;;;5053642;28;20118;-60
2021/11/07 07:04:50;;;;;;;9.38;7.50;;;8.10;99.90;;;;;;5052368;28;20036;-61
2021/11/07 07:07:16;;;;;;;11.27;8.93;;;8.10;99.90;;;;;;5033589;28;20064;-60
2021/11/07 07:09:48;;;;;;;9.90;8.55;;;8.10;99.90;;;;;;5033082;28;20032;-60
2021/11/07 07:12:33;;;;;;;9.68;7.90;;;8.10;99.90;;;;;;5050878;28;20493;-61
2021/11/07 07:15:08;;;;;;;;;;;8.20;99.90;;;;;;5038286;28;20037;-58
2021/11/07 07:20:25;;;;;;;10.90;8.55;;;8.20;99.90;;;;;;5037394;28;20073;-62
2021/11/07 07:23:24;;;;;;;10.65;8.45;;;8.20;99.90;;;;;;5056888;28;20052;-66
2021/11/07 07:28:41;;;;;;;9.70;7.90;;;8.30;99.90;;;;;;5056925;28;20115;-62
2021/11/07 07:33:37;;;;;;;11.88;8.57;;;8.30;99.90;;;;;;5056667;28;20526;-62
2021/11/07 07:36:03;;;;;;;10.52;7.78;;;8.30;99.90;;;;;;5055744;28;20037;-60
2021/11/07 07:38:29;;;;;;;8.93;7.38;;;8.40;99.90;;;;;;5048839;28;20037;-62
2021/11/07 07:40:55;;;;;;;9.45;7.63;;;8.40;99.90;;;;;;5047450;28;20103;-64
2021/11/07 07:43:21;;;;;;;9.73;7.65;;;8.40;99.90;;;;;;5059369;28;20032;-62
2021/11/07 07:45:47;;;;;;;10.25;7.28;;;8.40;99.90;;;;;;5055335;28;20025;-61
2021/11/07 07:48:12;;;;;;;9.13;7.70;;;8.40;99.90;;;;;;5056370;28;20040;-62
2021/11/07 07:50:40;;;;;;;10.18;7.15;;;8.30;99.90;;;;;;5057023;28;20041;-62
2021/11/07 07:53:07;;;;;;;9.80;7.57;;;8.30;99.90;;;;;;5056566;28;20052;-61
2021/11/07 07:55:33;;;;;;;10.05;6.95;;;8.40;99.90;;;;;;5056645;28;20040;-61
2021/11/07 07:58:00;;;;;;;10.38;7.55;;;8.40;99.90;;;;;;5057232;28;20029;-63
2021/11/07 08:00:27;;;;;;;9.32;7.05;;;8.40;99.90;;;;;;5055819;28;20041;-59
2021/11/07 08:02:53;;;;;;;9.98;6.88;;;8.40;99.90;;;;;;5055686;28;20029;-60
2021/11/07 08:05:18;;;;;;;9.15;7.25;;;8.40;99.90;;;;;;5056722;28;20024;-62
2021/11/07 08:07:44;;;;;;;8.25;7.30;;;8.40;99.90;;;;;;5057014;28;20048;-61
2021/11/07 08:10:12;;;;;;;9.40;7.20;;;8.40;99.90;;;;;;5056742;28;20071;-59
2021/11/07 08:12:39;;;;;;;9.52;7.20;;;8.40;99.90;;;;;;5038426;28;20136;-61
2021/11/07 08:15:06;;;;;;;9.23;7.45;;;8.30;99.90;;;;;;5055960;28;20028;-63
2021/11/07 08:17:33;;;;;;;9.23;7.28;;;8.30;99.90;;;;;;5056053;28;20065;-62
2021/11/07 08:19:59;;;;;;;9.18;7.35;;;8.40;99.90;;;;;;5037496;28;20040;-62
2021/11/07 08:22:25;;;;;;;10.27;7.78;;;8.30;99.90;;;;;;5054310;28;20029;-65
2021/11/07 08:24:51;;;;;;;8.75;7.00;;;8.20;99.90;;;;;;5071809;28;20025;-63
2021/11/07 08:27:16;;;;;;;8.80;7.32;;;8.30;99.90;;;;;;5055995;28;20119;-61
2021/11/07 08:29:45;;;;;;;9.32;7.35;;;8.20;99.90;;;;;;5055017;28;20032;-60
2021/11/07 08:32:11;;;;;;;10.13;7.07;;;8.20;99.90;;;;;;5070465;28;20021;-62
2021/11/07 08:34:37;;;;;;;8.07;6.45;;;8.20;99.90;;;;;;5055382;28;20048;-62
2021/11/07 08:37:07;;;;;;;7.03;5.78;;;8.20;99.90;;;;;;5053721;28;20025;-63
2021/11/07 08:39:39;;;;;;;7.65;6.00;;;8.20;99.90;;;;;;5054426;28;20132;-61
2021/11/07 08:42:12;;;;;;;7.75;5.97;;;8.10;99.90;;;;;;5055801;28;20043;-61
2021/11/07 09:01:18;;;;;;;5.90;4.80;;;8.20;99.90;;;;;;5034388;28;20342;-64
2021/11/07 09:03:49;;;;;;;6.85;4.97;;;8.20;99.90;;;;;;5035141;28;20070;-62
2021/11/07 09:08:49;;;;;;;5.35;4.15;;;8.20;99.90;;;;;;5035393;28;20034;-62
2021/11/07 09:11:20;;;;;;;6.63;4.57;;;8.20;99.90;;;;;;5048206;28;20520;-60
2021/11/07 09:13:47;;;;;;;5.45;4.43;;;8.30;99.90;;;;;;5037157;28;20033;-61
2021/11/07 09:16:14;;;;;;;5.45;4.10;;;8.30;99.90;;;;;;5053287;28;20037;-61
2021/11/07 09:18:41;;;;;;;4.68;4.13;;;8.30;99.90;;;;;;5052311;28;20115;-62
2021/11/07 09:21:20;;;;;;;5.15;4.15;;;8.40;99.90;;;;;;5053898;28;20021;-62
2021/11/07 09:23:55;;;;;;;5.80;3.85;;;8.40;99.90;;;;;;5053925;28;20561;-63
2021/11/07 09:26:27;;;;;;;4.80;4.05;;;8.40;99.90;;;;;;5053869;28;20033;-61
2021/11/07 09:29:24;;;;;;;6.07;4.03;;;8.40;99.90;;;;;;5053146;28;20025;-65
2021/11/07 09:31:57;;;;;;;5.53;4.32;;;8.40;99.90;;;;;;5054060;28;20071;-63
2021/11/07 09:34:37;;;;;;;4.97;4.10;;;8.40;99.90;;;;;;5053811;28;20041;-65
2021/11/07 09:37:07;;;;;;;5.10;4.25;;;8.40;99.90;;;;;;5055480;28;20439;-64
2021/11/07 09:39:38;;;;;;;4.50;3.78;;;8.40;99.90;;;;;;5053637;28;20432;-63
2021/11/07 09:42:29;;;;;;;4.55;3.60;;;8.50;99.90;;;;;;5053866;28;20033;-64
2021/11/07 09:45:05;;;;;;;4.88;3.58;;;8.50;99.90;;;;;;5054155;28;20029;-65
2021/11/07 09:47:33;;;;;;;4.32;3.65;;;8.60;99.90;;;;;;5053782;28;20028;-63
2021/11/07 09:49:59;;;;;;;5.28;3.40;;;8.50;99.90;;;;;;5052708;28;20469;-65
2021/11/07 09:52:29;;;;;;;5.90;3.60;;;8.50;99.90;;;;;;5054033;28;20060;-64
2021/11/07 09:55:00;;;;;;;3.80;3.30;;;8.50;99.90;;;;;;5037456;28;20036;-63
2021/11/07 09:57:27;;;;;;;4.50;2.90;;;8.60;99.90;;;;;;5054017;28;20065;-64
2021/11/07 09:59:56;;;;;;;4.63;3.20;;;8.50;99.90;;;;;;5054278;28;20500;-66
2021/11/07 10:02:23;;;;;;;3.95;3.38;;;8.60;99.90;;;;;;5050636;28;20040;-65
2021/11/07 10:04:50;;;;;;;3.95;3.30;;;8.50;99.90;;;;;;5047055;28;20323;-64
2021/11/07 10:07:23;;;;;;;4.00;3.42;;;8.60;99.90;;;;;;5053526;28;20021;-65
2021/11/07 10:09:55;;;;;;;3.83;3.42;;;8.60;99.90;;;;;;5053112;28;20029;-63
2021/11/07 10:15:05;;;;;;;4.07;3.03;;;8.60;99.90;;;;;;5051433;28;20480;-62
2021/11/07 10:17:41;;;;;;;3.55;3.20;;;8.70;99.90;;;;;;5043499;28;20599;-64
2021/11/07 10:20:44;;;;;;;3.80;3.17;;;8.80;99.90;;;;;;5052482;28;20036;-64
2021/11/07 10:23:09;;;;;;;5.00;3.30;;;8.80;99.90;;;;;;5051734;28;20047;-63
2021/11/07 10:25:57;;;;;;;3.70;3.10;;;8.90;99.90;;;;;;5051261;28;20113;-66
2021/11/07 10:28:29;;;;;;;4.82;3.22;;;8.90;99.90;;;;;;5053156;28;20512;-63
2021/11/07 10:31:17;;;;;;;4.00;3.30;;;8.90;99.90;;;;;;5050954;28;20037;-62
2021/11/07 10:39:26;;;;;;;4.00;3.60;;;9.00;99.90;;;;;;5046620;28;20028;-63
2021/11/07 10:52:37;;;;;;;5.43;4.60;;;9.00;99.90;;;;;;5053473;28;20032;-63
2021/11/07 10:55:05;;;;;;;6.18;4.40;;;9.00;99.90;;;;;;5054217;28;20408;-62
2021/11/07 10:57:32;;;;;;;4.80;4.00;;;9.00;99.90;;;;;;5052822;28;20025;-62
2021/11/07 11:00:06;;;;;;;6.63;4.95;;;9.00;99.90;;;;;;5052381;28;20539;-63
2021/11/07 11:02:34;;;;;;;7.38;5.15;;;9.00;99.90;;;;;;5053403;28;20639;-60
2021/11/07 11:05:02;;;;;;;5.35;4.68;;;9.00;99.90;;;;;;5052768;28;20036;-62
2021/11/07 11:07:29;;;;;;;5.32;4.82;;;9.10;99.90;;;;;;5052724;28;20636;-59
2021/11/07 11:10:11;;;;;;;5.35;4.85;;;9.10;99.90;;;;;;5053228;28;20025;-60
2021/11/07 11:13:06;;;;;;;5.60;4.63;;;9.10;99.90;;;;;;5053280;28;20037;-62
2021/11/07 11:15:41;;;;;;;6.10;4.72;;;9.20;99.90;;;;;;5052700;28;20065;-61
2021/11/07 11:18:23;;;;;;;6.03;4.28;;;9.30;99.90;;;;;;5051052;28;20044;-62
2021/11/07 11:21:16;;;;;;;7.35;4.70;;;9.30;99.90;;;;;;5053039;28;20511;-63
2021/11/07 11:24:07;;;;;;;5.65;5.03;;;9.20;99.90;;;;;;5053175;28;20033;-61
2021/11/07 11:32:01;;;;;;;5.45;4.93;;;9.30;99.90;;;;;;5037321;28;20045;-62
2021/11/07 11:34:38;;;;;;;7.43;4.53;;;9.40;99.90;;;;;;5053575;28;20404;-63
2021/11/07 11:40:00;;;;;;;6.82;5.20;;;9.40;99.90;;;;;;5065902;28;20029;-62
2021/11/07 11:42:33;;;;;;;6.13;4.55;;;9.30;99.90;;;;;;5051332;28;20508;-61
2021/11/07 11:44:58;;;;;;;7.25;4.72;;;9.40;99.90;;;;;;5067228;28;20041;-62
2021/11/07 11:48:02;;;;;;;5.43;4.30;;;9.50;99.90;;;;;;5068942;28;20091;-61
2021/11/07 11:53:30;;;;;;;7.32;4.93;;;9.60;99.90;;;;;;5052931;28;20453;-62
2021/11/07 11:56:18;;;;;;;6.68;4.65;;;9.60;99.90;;;;;;5052991;28;20040;-64
2021/11/07 11:58:55;;;;;;;6.68;4.50;;;9.60;99.90;;;;;;5056452;28;20517;-63
2021/11/07 12:01:29;;;;;;;8.00;5.18;;;9.70;99.90;;;;;;5054620;28;20033;-64
2021/11/07 12:04:15;;;;;;;6.82;4.78;;;9.70;99.90;;;;;;5056181;28;20021;-64
2021/11/07 12:06:47;;;;;;;5.80;4.72;;;9.80;99.90;;;;;;5056222;28;20103;-64
2021/11/07 12:16:55;;;;;;;8.45;5.60;;;10.00;99.90;;;;;;5070906;28;20036;-62
2021/11/07 12:19:36;;;;;;;5.53;4.97;;;10.00;99.90;;;;;;5055250;28;20033;-64
2021/11/07 12:22:10;;;;;;;6.13;4.95;;;10.00;99.90;;;;;;5054366;28;20040;-65
2021/11/07 12:24:48;;;;;;;5.33;4.83;;;10.10;99.90;;;;;;5055123;28;20063;-64
2021/11/07 12:27:27;;;;;;;6.65;5.15;;;10.00;99.90;;;;;;5054476;28;20136;-60
2021/11/07 12:30:14;;;;;;;6.75;4.72;;;10.10;99.90;;;;;;5054375;28;20097;-62
2021/11/07 12:32:44;;;;;;;4.93;4.38;;;10.10;99.90;;;;;;5055173;28;20028;-63
2021/11/07 12:35:25;;;;;;;6.38;4.38;;;10.00;99.90;;;;;;5054218;28;20384;-62
2021/11/07 12:41:14;;;;;;;5.25;4.10;;;9.90;99.90;;;;;;5055164;28;20041;-63
2021/11/07 12:43:42;;;;;;;5.15;4.43;;;9.90;99.90;;;;;;5070622;28;20076;-63
2021/11/07 12:49:13;;;;;;;5.72;4.35;;;9.90;99.90;;;;;;5056192;28;20025;-63
2021/11/07 12:51:40;;;;;;;6.10;4.40;;;9.80;99.90;;;;;;5053675;28;20041;-61
2021/11/07 12:54:10;;;;;;;5.15;4.43;;;9.90;99.90;;;;;;5055105;28;20544;-59
2021/11/07 12:56:36;;;;;;;5.10;4.20;;;9.80;99.90;;;;;;5053778;28;20065;-62
2021/11/07 12:59:08;;;;;;;4.68;4.00;;;9.90;99.90;;;;;;5054698;28;20068;-62
2021/11/07 13:02:11;;;;;;;6.18;4.50;;;9.80;99.90;;;;;;5054893;28;20048;-64
2021/11/07 13:08:17;;;;;;;11.15;5.97;;;9.80;99.90;;;;;;5055929;28;20029;-60
2021/11/07 13:25:09;;;;;;;6.63;5.15;;;9.90;99.90;;;;;;5055596;28;20025;-63
2021/11/07 13:34:32;;;;;;;5.35;4.30;;;9.80;99.90;;;;;;5054350;28;20033;-63
2021/11/07 13:37:01;;;;;;;7.28;5.00;;;9.60;99.90;;;;;;5053010;28;20033;-64
2021/11/07 13:39:31;;;;;;;7.07;5.05;;;9.70;99.90;;;;;;5054775;28;20575;-63
2021/11/07 13:42:08;;;;;;;7.88;5.13;;;9.70;99.90;;;;;;5054111;28;20500;-62
2021/11/07 13:45:02;;;;;;;8.77;5.25;;;9.60;99.90;;;;;;5054050;28;20029;-64
2021/11/07 13:47:37;;;;;;;6.78;4.72;;;9.70;99.90;;;;;;5054719;28;20488;-61
2021/11/07 13:50:10;;;;;;;6.45;4.90;;;9.60;99.90;;;;;;5053778;28;20033;-63
2021/11/07 13:52:39;;;;;;;5.20;4.20;;;9.60;99.90;;;;;;5054813;28;20045;-63
2021/11/07 13:55:16;;;;;;;7.03;4.95;;;9.70;99.90;;;;;;5070173;28;20028;-63
2021/11/07 13:57:42;;;;;;;5.70;4.55;;;9.60;99.90;;;;;;5054819;28;20036;-63
2021/11/07 14:00:10;;;;;;;5.88;4.13;;;9.70;99.90;;;;;;5053898;28;20033;-63
2021/11/07 14:02:36;;;;;;;5.72;4.00;;;9.60;99.90;;;;;;5054081;28;20186;-63
2021/11/07 14:05:02;;;;;;;8.07;4.13;;;9.70;99.90;;;;;;5053098;28;20488;-63
2021/11/07 14:07:31;;;;;;;5.45;3.35;;;9.70;99.90;;;;;;5054419;28;20065;-65
2021/11/07 14:10:14;;;;;;;5.25;3.60;;;9.80;99.90;;;;;;5069487;28;20064;-63
2021/11/07 14:12:42;;;;;;;4.30;3.80;;;9.80;99.90;;;;;;5053486;28;20388;-64
2021/11/07 14:15:25;;;;;;;3.85;3.33;;;9.70;99.90;;;;;;5054641;28;20035;-61
2021/11/07 14:17:55;;;;;;;4.93;3.50;;;9.80;99.90;;;;;;5055300;28;20381;-63
2021/11/07 14:20:56;;;;;;;4.80;3.22;;;9.80;99.90;;;;;;5054876;28;20096;-62
2021/11/07 14:23:28;;;;;;;6.07;3.95;;;9.70;99.90;;;;;;5033911;28;20401;-63
2021/11/07 14:26:03;;;;;;;7.50;4.35;;;9.60;99.90;;;;;;5033878;28;20044;-63
2021/11/07 14:28:36;;;;;;;5.78;3.88;;;9.60;99.90;;;;;;5034177;28;20033;-63
2021/11/07 14:31:11;;;;;;;4.32;3.50;;;9.50;99.90;;;;;;5034176;28;20084;-63
2021/11/07 14:33:45;;;;;;;4.88;3.40;;;9.50;99.90;;;;;;5033718;28;20034;-62
2021/11/07 14:36:51;;;;;;;5.07;3.65;;;9.50;99.90;;;;;;5034383;28;20037;-62
2021/11/07 14:42:19;;;;;;;;;;;9.50;99.90;;;;;;5033717;28;20394;-62
2021/11/07 14:44:54;;;;;;;4.60;3.67;;;9.60;99.90;;;;;;5033587;28;20361;-61
2021/11/07 14:47:33;;;;;;;;;;;9.50;99.90;;;;;;5034242;28;20037;-63
2021/11/07 14:55:36;;;;;;;6.53;3.75;;;9.50;99.90;;;;;;5038490;28;20028;-62
2021/11/07 14:58:52;;;;;;;5.82;4.10;;;9.60;99.90;;;;;;5052976;28;20078;-62
2021/11/07 15:04:08;;;;;;;6.10;4.53;;;9.60;99.90;;;;;;5053328;28;20501;-63
2021/11/07 15:06:41;;;;;;;7.18;4.53;;;9.50;99.90;;;;;;5052924;28;20075;-63
2021/11/07 15:09:22;;;;;;;9.02;5.15;;;9.50;99.90;;;;;;5053225;28;20025;-61
2021/11/07 15:18:06;;;;;;;8.15;5.57;;;9.20;99.90;;;;;;5053167;28;20044;-64
2021/11/07 15:23:02;;;;;;;6.50;4.82;;;9.20;99.90;;;;;;5054900;28;20040;-62
2021/11/07 15:25:34;;;;;;;8.18;5.00;;;9.00;99.90;;;;;;5051016;28;20032;-64
2021/11/07 15:28:06;;;;;;;6.43;4.82;;;9.00;99.90;;;;;;5052425;28;20028;-63
2021/11/07 15:30:36;;;;;;;10.43;4.40;;;9.10;99.90;;;;;;5050017;28;20041;-62
2021/11/07 15:33:14;;;;;;;8.05;4.68;;;9.00;99.90;;;;;;5054551;28;20036;-64
2021/11/07 15:35:46;;;;;;;8.40;4.82;;;8.90;99.90;;;;;;5056025;28;20449;-64
2021/11/07 15:38:21;;;;;;;10.13;5.55;;;9.00;99.90;;;;;;5054587;28;20428;-63
2021/11/07 15:40:49;;;;;;;10.85;5.30;;;9.00;99.90;;;;;;5056077;28;20074;-64
2021/11/07 15:43:26;;;;;;;9.93;5.47;;;8.90;99.90;;;;;;5056590;28;20064;-63